Ana Sayfa
METAR-TAF:

METAR-TAF

Havaalanları :

Rodos Diagoras Uluslararası Havalimanı

Rodos, Yunanistan

Enlem: 36-24N, Boylam: 028-05E, yükseklik: 4 m

Güncel hava durumu gözlemi

Rapor saat 22:20 UTC de 43 dakika önce yapıldı.
Rüzgar batıdan 6 kt
Sıcaklık 23°C
Nem 69%
Basınç 1012 hPa
Görüş mesafesi: 9000 m
1800 ft yükseklikte az bulutlu

METAR: LGRP 202220Z 27006KT 9000 FEW018 23/17 Q1012 NOSIG

Saat: 02:03 (23:03 UTC)

Tahmin

Rapor saat 17:00 UTC de 6 saat ve 3 dakika önce yapıldı.
Ayın 20'si saat 18 UTC'den ayın 21'si saat 18 UTC'ye kadar geçerli Tahmin
Rüzgar batı/kuzeybatıdan 14 kt
Görüş mesafesi: 9000 m
1600 ft yükseklikte az bulutlu

TAF: LGRP 201700Z 2018/2118 30014KT 9000 FEW016

4.000'den fazla havaalanı için hava durumu gözlemleri ve tahminleri (METAR ve TAF raporları).

Kullanılabilir istasyonlar harita üzerinde sarı ve kırmızı noktalarla gösterilir.

İstasyonun adını görmek için fareyi noktanın üzerinde gezdirin.

Sonrasında hava gözlem ve tahminlerini görmek için tıklayın.

Haritayı değiştirmek için: yaklaştırmak için siyah artı işaretli yeşil düğmeye ve uzaklaştırmak için de eksi işaretli düğmeye hızla tıklayın; bitişik haritalar için yeşil okları kullanın.


METAR-TAF: